Time,TemperatureF,DewpointF,PressureIn,WindDirection,WindDirectionDegrees,WindSpeedMPH,WindSpeedGustMPH,Humidity,HourlyPrecipIn,Conditions,Clouds,dailyrainin,SoftwareType,DateUTC
2013-04-19 00:00:00,70.3,57.5,29.66,NE,45,7.6,10.4,64,0.00,BKN,,0.00,WeatherDisplay:10.37,2013-04-19 04:00:00,
2013-04-19 00:01:00,70.3,57.5,29.66,WSW,248,7.9,10.4,64,0.00,BKN,,0.00,WeatherDisplay:10.37,2013-04-19 04:01:00,
2013-04-19 00:03:00,70.3,57.5,29.66,SSW,202,10.5,11.5,64,0.00,BKN,,0.00,WeatherDisplay:10.37,2013-04-19 04:03:00,
2013-04-19 00:08:00,70.3,57.5,29.66,NNE,22,8.8,10.4,64,0.00,BKN,,0.00,WeatherDisplay:10.37,2013-04-19 04:08:00,
2013-04-19 00:13:00,70.3,57.5,29.66,WSW,248,8.5,9.4,64,0.00,BKN,,0.00,WeatherDisplay:10.37,2013-04-19 04:13:00,
2013-04-19 00:18:00,70.3,57.5,29.68,SSW,202,11.7,12.7,64,0.00,BKN,,0.00,WeatherDisplay:10.37,2013-04-19 04:18:00,
2013-04-19 00:23:00,70.3,57.5,29.68,SSW,202,12.4,12.7,64,0.00,BKN,,0.00,WeatherDisplay:10.37,2013-04-19 04:23:00,
2013-04-19 00:28:00,70.7,57.5,29.69,West,270,8.6,9.4,63,0.00,BKN,,0.00,WeatherDisplay:10.37,2013-04-19 04:28:00,
2013-04-19 00:33:00,70.7,57.5,29.69,South,180,6.3,13.8,63,0.00,BKN,,0.00,WeatherDisplay:10.37,2013-04-19 04:33:00,
2013-04-19 00:38:00,70.5,57.3,29.69,SW,225,7.4,9.4,63,0.00,BKN,,0.00,WeatherDisplay:10.37,2013-04-19 04:38:00,
2013-04-19 00:43:00,70.5,57.3,29.69,West,270,9.4,10.9,63,0.00,BKN,,0.00,WeatherDisplay:10.37,2013-04-19 04:43:00,
2013-04-19 00:48:00,70.7,57.5,29.69,West,270,5.2,9.2,63,0.00,BKN,,0.00,WeatherDisplay:10.37,2013-04-19 04:48:00,
2013-04-19 00:53:00,70.5,57.3,29.69,WNW,292,5.8,9.2,63,0.00,BKN,,0.00,WeatherDisplay:10.37,2013-04-19 04:53:00,
2013-04-19 00:58:00,70.5,57.3,29.69,SW,225,6.0,11.5,63,0.00,BKN,,0.00,WeatherDisplay:10.37,2013-04-19 04:58:00,
2013-04-19 01:03:00,70.3,57.5,29.69,SW,225,4.1,5.8,64,0.00,BKN,,0.00,WeatherDisplay:10.37,2013-04-19 05:03:00,
2013-04-19 01:08:00,69.6,57.7,29.69,WSW,248,6.4,8.1,66,0.00,BKN,,0.00,WeatherDisplay:10.37,2013-04-19 05:08:00,
2013-04-19 01:13:00,68.5,58.3,29.69,WSW,248,7.7,7.7,70,0.00,BKN,,0.00,WeatherDisplay:10.37,2013-04-19 05:13:00,
2013-04-19 01:18:00,68.0,58.2,29.69,West,270,6.8,9.2,71,0.00,BKN,,0.00,WeatherDisplay:10.37,2013-04-19 05:18:00,
2013-04-19 01:23:00,67.6,58.2,29.69,SSW,202,4.1,5.8,72,0.00,BKN,,0.00,WeatherDisplay:10.37,2013-04-19 05:23:00,
2013-04-19 01:28:00,67.1,58.2,29.69,West,270,5.2,6.9,73,0.00,BKN,,0.00,WeatherDisplay:10.37,2013-04-19 05:28:00,
2013-04-19 01:33:00,66.9,58.3,29.69,SW,225,3.5,5.8,74,0.00,BKN,,0.00,WeatherDisplay:10.37,2013-04-19 05:33:00,
2013-04-19 01:38:00,66.7,58.1,29.69,WSW,248,4.4,4.6,74,0.00,BKN,,0.00,WeatherDisplay:10.37,2013-04-19 05:38:00,
2013-04-19 01:43:00,66.6,58.4,29.68,WSW,248,3.0,3.5,75,0.00,BKN,,0.00,WeatherDisplay:10.37,2013-04-19 05:43:00,
2013-04-19 01:48:00,66.2,58.0,29.68,SSW,202,2.6,2.6,75,0.00,BKN,,0.00,WeatherDisplay:10.37,2013-04-19 05:48:00,
2013-04-19 01:53:00,66.0,58.2,29.68,WSW,248,1.8,2.3,76,0.00,BKN,,0.00,WeatherDisplay:10.37,2013-04-19 05:53:00,
2013-04-19 01:58:00,65.5,58.1,29.68,NW,315,0.0,0.0,77,0.00,BKN,,0.00,WeatherDisplay:10.37,2013-04-19 05:58:00,
2013-04-19 02:03:00,65.3,57.9,29.68,SSW,202,0.4,1.1,77,0.00,BKN,,0.00,WeatherDisplay:10.37,2013-04-19 06:03:00,
2013-04-19 02:08:00,65.3,58.3,29.67,SW,225,2.5,2.5,78,0.00,BKN,,0.00,WeatherDisplay:10.37,2013-04-19 06:08:00,
2013-04-19 02:13:00,65.3,58.3,29.67,NNE,22,0.7,1.1,78,0.00,BKN,,0.00,WeatherDisplay:10.37,2013-04-19 06:13:00,
2013-04-19 02:18:00,64.9,58.2,29.66,SSE,158,2.4,2.7,79,0.00,BKN,,0.00,WeatherDisplay:10.37,2013-04-19 06:18:00,
2013-04-19 02:23:00,64.6,57.9,29.66,South,180,1.1,2.3,79,0.00,BKN,,0.00,WeatherDisplay:10.37,2013-04-19 06:23:00,
2013-04-19 02:28:00,64.4,58.1,29.64,SE,135,0.0,0.0,80,0.00,BKN,,0.00,WeatherDisplay:10.37,2013-04-19 06:28:00,
2013-04-19 02:33:00,64.4,57.7,29.64,ESE,112,2.8,4.6,79,0.00,BKN,,0.00,WeatherDisplay:10.37,2013-04-19 06:33:00,
2013-04-19 02:38:00,65.8,57.3,29.64,ESE,112,2.5,5.8,74,0.00,BKN,,0.00,WeatherDisplay:10.37,2013-04-19 06:38:00,
2013-04-19 02:43:00,66.2,57.3,29.64,North,360,3.8,4.2,73,0.00,BKN,,0.00,WeatherDisplay:10.37,2013-04-19 06:43:00,
2013-04-19 02:48:00,66.6,57.3,29.64,SSE,158,3.0,4.2,72,0.00,BKN,,0.00,WeatherDisplay:10.37,2013-04-19 06:48:00,
2013-04-19 02:53:00,66.6,56.9,29.64,ESE,112,3.3,4.6,71,0.00,BKN,,0.00,WeatherDisplay:10.37,2013-04-19 06:53:00,
2013-04-19 02:58:00,66.7,57.0,29.64,NNE,22,3.8,4.6,71,0.00,BKN,,0.00,WeatherDisplay:10.37,2013-04-19 06:58:00,
2013-04-19 03:03:00,67.1,57.0,29.64,South,180,3.2,4.7,70,0.00,BKN,,0.00,WeatherDisplay:10.37,2013-04-19 07:03:00,
2013-04-19 03:08:00,67.1,57.0,29.63,SSE,158,3.6,4.6,70,0.00,BKN,,0.00,WeatherDisplay:10.37,2013-04-19 07:08:00,
2013-04-19 03:13:00,67.3,56.8,29.63,SW,225,4.3,6.9,69,0.00,BKN,,0.00,WeatherDisplay:10.37,2013-04-19 07:13:00,
2013-04-19 03:18:00,67.3,56.8,29.62,SSE,158,1.6,4.6,69,0.00,BKN,,0.00,WeatherDisplay:10.37,2013-04-19 07:18:00,
2013-04-19 03:23:00,67.3,56.8,29.62,NNE,22,4.0,4.6,69,0.00,BKN,,0.00,WeatherDisplay:10.37,2013-04-19 07:23:00,
2013-04-19 03:28:00,67.3,56.8,29.62,WSW,248,3.2,5.8,69,0.00,BKN,,0.00,WeatherDisplay:10.37,2013-04-19 07:28:00,
2013-04-19 03:33:00,67.6,56.7,29.62,South,180,8.5,9.4,68,0.00,BKN,,0.00,WeatherDisplay:10.37,2013-04-19 07:33:00,
2013-04-19 03:38:00,67.6,56.7,29.62,SSE,158,5.6,6.9,68,0.00,BKN,,0.00,WeatherDisplay:10.37,2013-04-19 07:38:00,
2013-04-19 03:43:00,67.5,56.6,29.60,SSW,202,5.8,5.8,68,0.00,BKN,,0.00,WeatherDisplay:10.37,2013-04-19 07:43:00,
2013-04-19 03:48:00,67.6,56.2,29.60,SE,135,3.0,10.4,67,0.00,BKN,,0.00,WeatherDisplay:10.37,2013-04-19 07:48:00,
2013-04-19 03:53:00,67.6,56.2,29.60,WSW,248,5.0,6.9,67,0.00,BKN,,0.00,WeatherDisplay:10.37,2013-04-19 07:53:00,
2013-04-19 03:58:00,67.6,56.2,29.60,NNE,22,7.4,7.4,67,0.00,BKN,,0.00,WeatherDisplay:10.37,2013-04-19 07:58:00,
2013-04-19 04:03:00,67.6,55.8,29.60,West,270,4.6,8.1,66,0.00,BKN,,0.00,WeatherDisplay:10.37,2013-04-19 08:03:00,
2013-04-19 04:08:00,67.8,56.0,29.60,South,180,6.0,10.4,66,0.00,BKN,,0.00,WeatherDisplay:10.37,2013-04-19 08:08:00,
2013-04-19 04:13:00,67.6,55.8,29.60,NW,315,7.8,7.8,66,0.00,BKN,,0.00,WeatherDisplay:10.37,2013-04-19 08:13:00,
2013-04-19 04:18:00,67.8,55.6,29.59,West,270,5.1,8.1,65,0.00,BKN,,0.00,WeatherDisplay:10.37,2013-04-19 08:18:00,
2013-04-19 04:23:00,67.8,55.6,29.59,SSE,158,4.8,10.4,65,0.00,BKN,,0.00,WeatherDisplay:10.37,2013-04-19 08:23:00,
2013-04-19 04:28:00,68.0,55.8,29.58,West,270,4.2,4.6,65,0.00,BKN,,0.00,WeatherDisplay:10.37,2013-04-19 08:28:00,
2013-04-19 04:33:00,67.5,55.3,29.58,SSE,158,7.3,13.0,65,0.00,BKN,,0.00,WeatherDisplay:10.37,2013-04-19 08:33:00,
2013-04-19 04:38:00,67.6,55.4,29.58,SW,225,8.6,10.9,65,0.00,BKN,,0.00,WeatherDisplay:10.37,2013-04-19 08:38:00,
2013-04-19 04:43:00,67.5,55.3,29.58,NNW,338,5.9,9.4,65,0.00,BKN,,0.00,WeatherDisplay:10.37,2013-04-19 08:43:00,
2013-04-19 04:48:00,67.6,55.4,29.58,SW,225,6.7,10.4,65,0.00,BKN,,0.00,WeatherDisplay:10.37,2013-04-19 08:48:00,
2013-04-19 04:53:00,67.6,55.0,29.58,South,180,6.2,7.8,64,0.00,BKN,,0.00,WeatherDisplay:10.37,2013-04-19 08:53:00,
2013-04-19 04:58:00,67.5,54.9,29.58,SW,225,3.7,5.8,64,0.00,BKN,,0.00,WeatherDisplay:10.37,2013-04-19 08:58:00,
2013-04-19 05:03:00,67.6,55.0,29.58,NNE,22,3.5,6.9,64,0.00,BKN,,0.00,WeatherDisplay:10.37,2013-04-19 09:03:00,
2013-04-19 05:08:00,67.6,55.0,29.57,SW,225,7.5,9.9,64,0.00,BKN,,0.00,WeatherDisplay:10.37,2013-04-19 09:08:00,
2013-04-19 05:13:00,67.6,55.0,29.57,SSE,158,5.8,10.4,64,0.00,BKN,,0.00,WeatherDisplay:10.37,2013-04-19 09:13:00,
2013-04-19 05:18:00,67.6,55.0,29.57,NW,315,9.5,11.5,64,0.00,BKN,,0.00,WeatherDisplay:10.37,2013-04-19 09:18:00,
2013-04-19 05:23:00,67.6,55.0,29.57,South,180,10.7,14.5,64,0.00,BKN,,0.00,WeatherDisplay:10.37,2013-04-19 09:23:00,
2013-04-19 05:28:00,67.5,54.9,29.57,SSE,158,6.2,9.2,64,0.00,BKN,,0.00,WeatherDisplay:10.37,2013-04-19 09:28:00,
2013-04-19 05:33:00,67.6,55.0,29.57,SSE,158,8.9,11.5,64,0.00,BKN,,0.00,WeatherDisplay:10.37,2013-04-19 09:33:00,
2013-04-19 05:38:00,67.5,54.9,29.57,SSE,158,9.2,10.4,64,0.00,BKN,,0.00,WeatherDisplay:10.37,2013-04-19 09:38:00,
2013-04-19 05:43:00,67.6,55.0,29.57,ESE,112,6.9,9.2,64,0.00,BKN,,0.00,WeatherDisplay:10.37,2013-04-19 09:43:00,
2013-04-19 05:48:00,67.6,55.0,29.57,SW,225,12.6,15.0,64,0.00,BKN,,0.00,WeatherDisplay:10.37,2013-04-19 09:48:00,
2013-04-19 05:53:00,67.6,55.0,29.57,SE,135,10.4,13.0,64,0.00,BKN,,0.00,WeatherDisplay:10.37,2013-04-19 09:53:00,
2013-04-19 05:58:00,67.5,54.9,29.57,SSE,158,10.9,10.9,64,0.00,BKN,,0.00,WeatherDisplay:10.37,2013-04-19 09:58:00,
2013-04-19 06:03:00,67.5,54.9,29.56,SSE,158,8.9,10.4,64,0.00,BKN,,0.00,WeatherDisplay:10.37,2013-04-19 10:03:00,
2013-04-19 06:08:00,67.3,54.7,29.56,SSE,158,8.2,9.9,64,0.00,BKN,,0.00,WeatherDisplay:10.37,2013-04-19 10:08:00,
2013-04-19 06:13:00,67.3,54.7,29.56,SSE,158,9.3,11.9,64,0.00,BKN,,0.00,WeatherDisplay:10.37,2013-04-19 10:13:00,
2013-04-19 06:18:00,67.5,54.9,29.56,South,180,6.8,9.4,64,0.00,BKN,,0.00,WeatherDisplay:10.37,2013-04-19 10:18:00,
2013-04-19 06:23:00,67.6,54.6,29.56,SSE,158,13.7,20.7,63,0.00,BKN,,0.00,WeatherDisplay:10.37,2013-04-19 10:23:00,
2013-04-19 06:28:00,67.5,54.5,29.55,SSE,158,6.6,8.1,63,0.00,BKN,,0.00,WeatherDisplay:10.37,2013-04-19 10:28:00,
2013-04-19 06:33:00,67.5,54.5,29.55,South,180,5.8,9.2,63,0.00,BKN,,0.00,WeatherDisplay:10.37,2013-04-19 10:33:00,
2013-04-19 06:38:00,67.5,54.5,29.55,South,180,10.7,10.7,63,0.00,BKN,,0.00,WeatherDisplay:10.37,2013-04-19 10:38:00,
2013-04-19 06:43:00,67.6,54.6,29.54,East,90,11.0,11.5,63,0.00,BKN,,0.00,WeatherDisplay:10.37,2013-04-19 10:43:00,
2013-04-19 06:48:00,67.6,54.6,29.54,ESE,112,6.0,9.9,63,0.00,BKN,,0.00,WeatherDisplay:10.37,2013-04-19 10:48:00,
2013-04-19 06:53:00,67.6,54.6,29.54,WSW,248,9.2,15.0,63,0.00,BKN,,0.00,WeatherDisplay:10.37,2013-04-19 10:53:00,
2013-04-19 06:58:00,67.8,54.7,29.54,NNE,22,7.4,10.4,63,0.00,BKN,,0.00,WeatherDisplay:10.37,2013-04-19 10:58:00,
2013-04-19 07:03:00,68.0,54.9,29.54,SSW,202,6.2,12.4,63,0.00,OVC,,0.00,WeatherDisplay:10.37,2013-04-19 11:03:00,
2013-04-19 07:08:00,68.2,54.7,29.54,WNW,292,9.0,10.4,62,0.00,OVC,,0.00,WeatherDisplay:10.37,2013-04-19 11:08:00,
2013-04-19 07:13:00,68.2,54.7,29.54,SE,135,6.0,9.2,62,0.00,OVC,,0.00,WeatherDisplay:10.37,2013-04-19 11:13:00,
2013-04-19 07:18:00,68.4,54.9,29.53,South,180,9.5,11.5,62,0.00,OVC,,0.00,WeatherDisplay:10.37,2013-04-19 11:18:00,
2013-04-19 07:23:00,68.7,55.2,29.53,SE,135,10.6,11.5,62,0.00,OVC,,0.00,WeatherDisplay:10.37,2013-04-19 11:23:00,
2013-04-19 07:28:00,68.7,55.2,29.52,South,180,13.0,15.0,62,0.00,OVC,,0.00,WeatherDisplay:10.37,2013-04-19 11:28:00,
2013-04-19 07:33:00,68.7,54.7,29.52,ESE,112,10.3,10.4,61,0.00,OVC,,0.00,WeatherDisplay:10.37,2013-04-19 11:33:00,
2013-04-19 07:38:00,68.7,54.7,29.52,SSE,158,9.2,12.7,61,0.00,OVC,,0.00,WeatherDisplay:10.37,2013-04-19 11:38:00,
2013-04-19 07:43:00,68.5,55.0,29.51,SSW,202,10.4,13.0,62,0.00,OVC,,0.00,WeatherDisplay:10.37,2013-04-19 11:43:00,
2013-04-19 07:48:00,68.7,55.2,29.51,South,180,9.8,16.0,62,0.00,OVC,,0.00,WeatherDisplay:10.37,2013-04-19 11:48:00,
2013-04-19 07:53:00,68.9,55.3,29.52,South,180,8.4,15.0,62,0.00,OVC,,0.00,WeatherDisplay:10.37,2013-04-19 11:53:00,
2013-04-19 07:58:00,68.7,55.2,29.52,SSW,202,12.0,15.5,62,0.00,OVC,,0.00,WeatherDisplay:10.37,2013-04-19 11:58:00,
2013-04-19 08:03:00,68.5,55.0,29.52,SSE,158,9.5,11.5,62,0.00,OVC,,0.00,WeatherDisplay:10.37,2013-04-19 12:03:00,
2013-04-19 08:08:00,68.4,54.9,29.51,SSE,158,11.3,13.8,62,0.00,OVC,,0.00,WeatherDisplay:10.37,2013-04-19 12:08:00,
2013-04-19 08:13:00,68.5,55.0,29.51,NE,45,8.3,11.5,62,0.00,OVC,,0.00,WeatherDisplay:10.37,2013-04-19 12:13:00,
2013-04-19 08:18:00,68.5,55.4,29.51,South,180,15.5,18.4,63,0.00,OVC,,0.00,WeatherDisplay:10.37,2013-04-19 12:18:00,
2013-04-19 08:23:00,68.5,55.4,29.51,NNW,338,7.5,11.5,63,0.00,OVC,,0.00,WeatherDisplay:10.37,2013-04-19 12:23:00,
2013-04-19 08:28:00,68.7,55.6,29.50,SSW,202,13.2,17.1,63,0.00,OVC,,0.00,WeatherDisplay:10.37,2013-04-19 12:28:00,
2013-04-19 08:33:00,68.7,55.6,29.50,South,180,11.9,15.0,63,0.00,OVC,,0.00,WeatherDisplay:10.37,2013-04-19 12:33:00,
2013-04-19 08:38:00,68.7,55.6,29.50,SSE,158,11.0,16.1,63,0.00,OVC,,0.00,WeatherDisplay:10.37,2013-04-19 12:38:00,
2013-04-19 08:43:00,68.7,55.6,29.50,ESE,112,9.1,15.5,63,0.00,OVC,,0.00,WeatherDisplay:10.37,2013-04-19 12:43:00,
2013-04-19 08:48:00,68.7,55.6,29.50,WSW,248,9.6,16.1,63,0.00,OVC,,0.00,WeatherDisplay:10.37,2013-04-19 12:48:00,
2013-04-19 08:53:00,68.9,55.8,29.48,SSE,158,10.8,16.1,63,0.00,OVC,,0.00,WeatherDisplay:10.37,2013-04-19 12:53:00,
2013-04-19 08:58:00,68.9,55.8,29.48,SE,135,10.8,15.0,63,0.00,OVC,,0.00,WeatherDisplay:10.37,2013-04-19 12:58:00,
2013-04-19 09:03:00,68.9,55.8,29.48,North,360,10.0,13.8,63,0.00,OVC,,0.00,WeatherDisplay:10.37,2013-04-19 13:03:00,
2013-04-19 09:08:00,68.9,55.8,29.47,ENE,68,15.0,15.0,63,0.00,OVC,,0.00,WeatherDisplay:10.37,2013-04-19 13:08:00,
2013-04-19 09:13:00,69.1,56.0,29.47,South,180,13.9,15.0,63,0.00,OVC,,0.00,WeatherDisplay:10.37,2013-04-19 13:13:00,
2013-04-19 09:18:00,69.1,56.0,29.47,ESE,112,16.2,21.2,63,0.00,OVC,,0.00,WeatherDisplay:10.37,2013-04-19 13:18:00,
2013-04-19 09:23:00,69.3,56.2,29.47,SW,225,10.0,14.5,63,0.00,OVC,,0.00,WeatherDisplay:10.37,2013-04-19 13:23:00,
2013-04-19 09:28:00,69.4,56.3,29.46,SSE,158,11.8,16.1,63,0.00,OVC,,0.00,WeatherDisplay:10.37,2013-04-19 13:28:00,
2013-04-19 09:33:00,69.4,56.3,29.46,SSE,158,6.4,10.4,63,0.00,OVC,,0.00,WeatherDisplay:10.37,2013-04-19 13:33:00,
2013-04-19 09:38:00,69.4,56.3,29.46,WNW,292,7.7,9.2,63,0.00,OVC,,0.00,WeatherDisplay:10.37,2013-04-19 13:38:00,
2013-04-19 09:43:00,69.8,56.6,29.47,SW,225,12.5,17.6,63,0.00,OVC,,0.00,WeatherDisplay:10.37,2013-04-19 13:43:00,
2013-04-19 09:48:00,70.0,56.4,29.47,SSE,158,10.8,12.4,62,0.00,OVC,,0.00,WeatherDisplay:10.37,2013-04-19 13:48:00,
2013-04-19 09:53:00,70.0,56.4,29.45,WSW,248,6.5,8.1,62,0.00,OVC,,0.00,WeatherDisplay:10.37,2013-04-19 13:53:00,
2013-04-19 09:58:00,70.2,56.6,29.45,South,180,9.1,11.9,62,0.00,OVC,,0.00,WeatherDisplay:10.37,2013-04-19 13:58:00,
2013-04-19 10:03:00,70.3,56.7,29.45,SSE,158,11.2,15.0,62,0.00,OVC,,0.00,WeatherDisplay:10.37,2013-04-19 14:03:00,
2013-04-19 10:08:00,70.5,56.9,29.45,South,180,10.5,19.6,62,0.00,OVC,,0.00,WeatherDisplay:10.37,2013-04-19 14:08:00,
2013-04-19 10:13:00,70.7,56.6,29.45,North,360,7.6,9.2,61,0.00,OVC,,0.00,WeatherDisplay:10.37,2013-04-19 14:13:00,
2013-04-19 10:18:00,70.7,56.6,29.44,West,270,9.9,10.4,61,0.00,OVC,,0.00,WeatherDisplay:10.37,2013-04-19 14:18:00,
2013-04-19 10:23:00,70.9,56.8,29.44,South,180,11.2,12.7,61,0.00,OVC,,0.00,WeatherDisplay:10.37,2013-04-19 14:23:00,
2013-04-19 10:28:00,70.9,56.8,29.45,South,180,12.5,13.0,61,0.00,OVC,,0.00,WeatherDisplay:10.37,2013-04-19 14:28:00,
2013-04-19 10:33:00,70.7,56.6,29.45,ENE,68,9.3,16.1,61,0.00,OVC,,0.00,WeatherDisplay:10.37,2013-04-19 14:33:00,
2013-04-19 10:38:00,70.7,56.6,29.45,SSE,158,10.7,12.4,61,0.00,OVC,,0.00,WeatherDisplay:10.37,2013-04-19 14:38:00,
2013-04-19 10:43:00,70.5,56.9,29.44,West,270,8.4,12.7,62,0.00,OVC,,0.00,WeatherDisplay:10.37,2013-04-19 14:43:00,
2013-04-19 10:48:00,70.2,57.0,29.44,SW,225,7.9,12.7,63,0.00,OVC,,0.00,WeatherDisplay:10.37,2013-04-19 14:48:00,
2013-04-19 10:53:00,70.0,57.3,29.43,ENE,68,10.7,11.5,64,0.00,OVC,,0.00,WeatherDisplay:10.37,2013-04-19 14:53:00,
2013-04-19 10:58:00,69.6,57.3,29.43,ENE,68,8.3,12.4,65,0.00,OVC,,0.00,WeatherDisplay:10.37,2013-04-19 14:58:00,
2013-04-19 11:03:00,69.6,58.2,29.43,SSE,158,7.7,10.9,67,0.00,-RA,,0.00,WeatherDisplay:10.37,2013-04-19 15:03:00,
2013-04-19 11:08:00,68.9,57.9,29.43,West,270,7.6,7.6,68,0.00,-RA,,0.00,WeatherDisplay:10.37,2013-04-19 15:08:00,
2013-04-19 11:13:00,68.9,58.3,29.43,SSE,158,7.2,12.7,69,0.01,-RA,,0.01,WeatherDisplay:10.37,2013-04-19 15:13:00,
2013-04-19 11:18:00,68.9,58.3,29.42,SSE,158,6.5,11.5,69,0.01,-RA,,0.01,WeatherDisplay:10.37,2013-04-19 15:18:00,
2013-04-19 11:23:00,68.5,58.3,29.42,ESE,112,8.1,8.1,70,0.02,-RA,,0.02,WeatherDisplay:10.37,2013-04-19 15:23:00,
2013-04-19 11:28:00,68.7,58.5,29.41,West,270,8.5,12.7,70,0.03,-RA,,0.03,WeatherDisplay:10.37,2013-04-19 15:28:00,
2013-04-19 11:33:00,69.3,58.7,29.41,SSE,158,10.1,12.7,69,0.03,-RA,,0.03,WeatherDisplay:10.37,2013-04-19 15:33:00,
2013-04-19 11:38:00,69.4,59.2,29.41,South,180,6.3,9.4,70,0.03,-RA,,0.03,WeatherDisplay:10.37,2013-04-19 15:38:00,
2013-04-19 11:43:00,69.6,58.2,29.41,SSE,158,13.2,13.2,67,0.03,-RA,,0.03,WeatherDisplay:10.37,2013-04-19 15:43:00,
2013-04-19 11:48:00,69.8,58.3,29.41,NE,45,7.3,7.3,67,0.03,-RA,,0.03,WeatherDisplay:10.37,2013-04-19 15:48:00,
2013-04-19 11:53:00,70.3,58.0,29.39,SW,225,9.0,12.7,65,0.03,-RA,,0.03,WeatherDisplay:10.37,2013-04-19 15:53:00,
2013-04-19 11:58:00,70.5,58.2,29.39,SSE,158,8.9,12.7,65,0.03,-RA,,0.03,WeatherDisplay:10.37,2013-04-19 15:58:00,
2013-04-19 12:03:00,71.2,58.0,29.39,SE,135,10.7,13.8,63,0.03,-RA,,0.03,WeatherDisplay:10.37,2013-04-19 16:03:00,
2013-04-19 12:08:00,71.6,57.9,29.39,ENE,68,8.2,13.0,62,0.03,-RA,,0.03,WeatherDisplay:10.37,2013-04-19 16:08:00,
2013-04-19 12:13:00,72.3,58.1,29.39,South,180,10.1,12.4,61,0.02,-RA,,0.03,WeatherDisplay:10.37,2013-04-19 16:13:00,
2013-04-19 12:18:00,72.7,58.5,29.38,ESE,112,13.3,16.1,61,0.02,-RA,,0.03,WeatherDisplay:10.37,2013-04-19 16:18:00,
2013-04-19 12:23:00,72.9,57.7,29.38,NE,45,10.9,17.3,59,0.01,-RA,,0.03,WeatherDisplay:10.37,2013-04-19 16:23:00,
2013-04-19 12:28:00,72.9,57.7,29.38,South,180,10.4,13.8,59,0.00,-RA,,0.03,WeatherDisplay:10.37,2013-04-19 16:28:00,
2013-04-19 12:33:00,72.9,57.7,29.38,ESE,112,13.4,26.8,59,0.00,-RA,,0.03,WeatherDisplay:10.37,2013-04-19 16:33:00,
2013-04-19 12:38:00,73.2,58.0,29.38,SSE,158,9.0,13.8,59,0.01,-RA,,0.04,WeatherDisplay:10.37,2013-04-19 16:38:00,
2013-04-19 12:43:00,73.4,58.2,29.37,NW,315,17.1,23.0,59,0.01,-RA,,0.04,WeatherDisplay:10.37,2013-04-19 16:43:00,
2013-04-19 12:48:00,70.3,55.3,29.37,WSW,248,21.4,24.2,59,0.01,-RA,,0.04,WeatherDisplay:10.37,2013-04-19 16:48:00,
2013-04-19 12:53:00,55.4,49.0,29.43,West,270,23.0,26.5,79,0.01,-RA,,0.04,WeatherDisplay:10.37,2013-04-19 16:53:00,
2013-04-19 12:58:00,50.5,46.8,29.43,SW,225,14.0,20.7,87,0.01,-RA,,0.04,WeatherDisplay:10.37,2013-04-19 16:58:00,
2013-04-19 13:03:00,48.7,45.6,29.43,WSW,248,16.4,18.6,89,0.01,-RA,,0.04,WeatherDisplay:10.37,2013-04-19 17:03:00,
2013-04-19 13:08:00,47.3,44.8,29.47,West,270,15.2,17.3,91,0.01,-RA,,0.04,WeatherDisplay:10.37,2013-04-19 17:08:00,
2013-04-19 13:13:00,46.2,44.3,29.47,SW,225,12.9,18.4,93,0.02,-RA,,0.05,WeatherDisplay:10.37,2013-04-19 17:13:00,
2013-04-19 13:18:00,46.0,44.1,29.48,SW,225,10.4,12.7,93,0.02,-RA,,0.05,WeatherDisplay:10.37,2013-04-19 17:18:00,
2013-04-19 13:23:00,45.5,43.6,29.48,NW,315,18.6,26.8,93,0.02,-RA,,0.05,WeatherDisplay:10.37,2013-04-19 17:23:00,
2013-04-19 13:28:00,45.1,43.2,29.48,WNW,292,15.2,16.1,93,0.02,-RA,,0.05,WeatherDisplay:10.37,2013-04-19 17:28:00,
2013-04-19 13:33:00,44.8,42.6,29.48,WNW,292,15.5,20.7,92,0.02,-RA,,0.05,WeatherDisplay:10.37,2013-04-19 17:33:00,
2013-04-19 13:38:00,44.4,42.8,29.48,WSW,248,12.0,17.3,94,0.02,-RA,,0.06,WeatherDisplay:10.37,2013-04-19 17:38:00,
2013-04-19 13:43:00,44.2,42.6,29.50,South,180,14.4,18.4,94,0.03,-RA,,0.07,WeatherDisplay:10.37,2013-04-19 17:43:00,
2013-04-19 13:48:00,43.9,42.3,29.50,WSW,248,15.6,18.1,94,0.03,-RA,,0.07,WeatherDisplay:10.37,2013-04-19 17:48:00,
2013-04-19 13:53:00,43.7,42.4,29.50,West,270,13.3,16.1,95,0.04,-RA,,0.08,WeatherDisplay:10.37,2013-04-19 17:53:00,
2013-04-19 13:58:00,43.2,41.9,29.50,SSE,158,13.6,19.6,95,0.05,-RA,,0.09,WeatherDisplay:10.37,2013-04-19 17:58:00,
2013-04-19 14:03:00,42.8,41.5,29.51,West,270,17.4,19.6,95,0.05,-RA,,0.09,WeatherDisplay:10.37,2013-04-19 18:03:00,
2013-04-19 14:08:00,42.6,41.3,29.51,SW,225,11.1,16.0,95,0.05,-RA,,0.09,WeatherDisplay:10.37,2013-04-19 18:08:00,
2013-04-19 14:13:00,42.3,41.0,29.51,West,270,14.3,21.2,95,0.04,-RA,,0.09,WeatherDisplay:10.37,2013-04-19 18:13:00,
2013-04-19 14:18:00,42.1,40.8,29.52,SW,225,10.2,20.7,95,0.04,-RA,,0.09,WeatherDisplay:10.37,2013-04-19 18:18:00,
2013-04-19 14:23:00,41.9,40.6,29.52,WNW,292,14.4,17.1,95,0.04,-RA,,0.09,WeatherDisplay:10.37,2013-04-19 18:23:00,
2013-04-19 14:28:00,41.7,40.4,29.53,SW,225,15.6,18.1,95,0.06,-RA,,0.11,WeatherDisplay:10.37,2013-04-19 18:28:00,
2013-04-19 14:33:00,41.4,40.1,29.53,West,270,17.8,20.7,95,0.06,-RA,,0.11,WeatherDisplay:10.37,2013-04-19 18:33:00,
2013-04-19 14:38:00,41.4,40.1,29.53,West,270,10.0,19.6,95,0.07,-RA,,0.13,WeatherDisplay:10.37,2013-04-19 18:38:00,
2013-04-19 14:43:00,41.5,40.2,29.52,West,270,13.6,16.1,95,0.07,-RA,,0.14,WeatherDisplay:10.37,2013-04-19 18:43:00,
2013-04-19 14:48:00,41.7,40.4,29.52,SW,225,16.8,18.4,95,0.07,-RA,,0.14,WeatherDisplay:10.37,2013-04-19 18:48:00,
2013-04-19 14:53:00,41.5,40.2,29.54,West,270,13.6,19.6,95,0.06,-RA,,0.14,WeatherDisplay:10.37,2013-04-19 18:53:00,
2013-04-19 14:58:00,41.4,40.1,29.54,WSW,248,15.4,17.6,95,0.06,-RA,,0.15,WeatherDisplay:10.37,2013-04-19 18:58:00,
2013-04-19 15:03:00,41.2,39.9,29.54,West,270,15.7,19.1,95,0.06,RA,,0.15,WeatherDisplay:10.37,2013-04-19 19:03:00,
2013-04-19 15:08:00,41.0,39.7,29.54,WSW,248,13.5,20.7,95,0.06,OVC,,0.15,WeatherDisplay:10.37,2013-04-19 19:08:00,
2013-04-19 15:13:00,41.0,39.7,29.54,West,270,17.1,23.0,95,0.06,OVC,,0.15,WeatherDisplay:10.37,2013-04-19 19:13:00,
2013-04-19 15:18:00,41.2,39.1,29.54,SSW,202,20.3,23.0,92,0.06,OVC,,0.15,WeatherDisplay:10.37,2013-04-19 19:18:00,
2013-04-19 15:23:00,41.0,38.9,29.54,SW,225,12.4,20.7,92,0.06,OVC,,0.15,WeatherDisplay:10.37,2013-04-19 19:23:00,
2013-04-19 15:28:00,40.6,38.5,29.56,WSW,248,10.4,17.3,92,0.04,OVC,,0.15,WeatherDisplay:10.37,2013-04-19 19:28:00,
2013-04-19 15:33:00,40.6,38.5,29.56,West,270,15.9,18.4,92,0.04,OVC,,0.15,WeatherDisplay:10.37,2013-04-19 19:33:00,
2013-04-19 15:38:00,40.5,38.4,29.56,West,270,11.5,16.1,92,0.02,OVC,,0.15,WeatherDisplay:10.37,2013-04-19 19:38:00,
2013-04-19 15:43:00,40.3,38.2,29.59,West,270,12.8,16.1,92,0.02,RA,,0.16,WeatherDisplay:10.37,2013-04-19 19:43:00,
2013-04-19 15:48:00,39.7,37.8,29.59,WNW,292,15.9,23.2,93,0.03,RA,,0.17,WeatherDisplay:10.37,2013-04-19 19:48:00,
2013-04-19 15:53:00,39.7,38.1,29.58,SSW,202,14.8,17.6,94,0.04,-RA,,0.18,WeatherDisplay:10.37,2013-04-19 19:53:00,
2013-04-19 15:58:00,39.6,38.3,29.58,West,270,9.8,13.8,95,0.04,-RA,,0.19,WeatherDisplay:10.37,2013-04-19 19:58:00,
2013-04-19 16:03:00,39.9,38.6,29.58,WSW,248,13.2,20.7,95,0.07,-RA,,0.22,WeatherDisplay:10.37,2013-04-19 20:03:00,
2013-04-19 16:08:00,40.3,38.2,29.59,West,270,19.7,23.8,92,0.07,-RA,,0.22,WeatherDisplay:10.37,2013-04-19 20:08:00,
2013-04-19 16:13:00,40.1,37.7,29.59,West,270,14.5,19.1,91,0.07,-RA,,0.22,WeatherDisplay:10.37,2013-04-19 20:13:00,
2013-04-19 16:18:00,40.1,37.7,29.59,WSW,248,14.2,16.6,91,0.07,-RA,,0.22,WeatherDisplay:10.37,2013-04-19 20:18:00,
2013-04-19 16:23:00,40.1,37.4,29.59,West,270,12.6,13.0,90,0.07,-RA,,0.22,WeatherDisplay:10.37,2013-04-19 20:23:00,
2013-04-19 16:28:00,40.5,37.2,29.60,WSW,248,14.7,24.2,88,0.07,-RA,,0.22,WeatherDisplay:10.37,2013-04-19 20:28:00,
2013-04-19 16:33:00,40.5,36.9,29.60,West,270,16.0,17.3,87,0.07,-RA,,0.22,WeatherDisplay:10.37,2013-04-19 20:33:00,
2013-04-19 16:38:00,40.5,36.6,29.60,WSW,248,15.8,21.9,86,0.07,-RA,,0.22,WeatherDisplay:10.37,2013-04-19 20:38:00,
2013-04-19 16:43:00,40.5,36.6,29.61,SSW,202,14.0,15.0,86,0.06,-RA,,0.22,WeatherDisplay:10.37,2013-04-19 20:43:00,
2013-04-19 16:48:00,40.5,36.6,29.61,SSW,202,14.0,14.0,86,0.05,-RA,,0.22,WeatherDisplay:10.37,2013-04-19 20:48:00,
2013-04-19 16:53:00,40.5,36.0,29.60,West,270,13.7,15.0,84,0.04,-RA,,0.22,WeatherDisplay:10.37,2013-04-19 20:53:00,
2013-04-19 16:58:00,40.5,35.7,29.60,WSW,248,12.9,16.1,83,0.03,-RA,,0.22,WeatherDisplay:10.37,2013-04-19 20:58:00,
2013-04-19 17:03:00,40.5,35.7,29.60,WSW,248,13.6,21.9,83,0.00,-RA,,0.22,WeatherDisplay:10.37,2013-04-19 21:03:00,
2013-04-19 17:08:00,40.5,36.0,29.63,WSW,248,12.4,13.8,84,0.00,-RA,,0.22,WeatherDisplay:10.37,2013-04-19 21:08:00,
2013-04-19 17:13:00,40.5,35.7,29.63,WSW,248,10.5,12.7,83,0.00,OVC,,0.22,WeatherDisplay:10.37,2013-04-19 21:13:00,
2013-04-19 17:18:00,40.5,35.4,29.64,West,270,14.0,15.0,82,0.00,OVC,,0.22,WeatherDisplay:10.37,2013-04-19 21:18:00,
2013-04-19 17:23:00,40.5,35.4,29.64,West,270,12.7,17.1,82,0.00,OVC,,0.22,WeatherDisplay:10.37,2013-04-19 21:23:00,
2013-04-19 17:28:00,40.5,35.7,29.65,SW,225,11.0,15.0,83,0.00,OVC,,0.22,WeatherDisplay:10.37,2013-04-19 21:28:00,
2013-04-19 17:33:00,40.5,35.7,29.65,NW,315,12.1,12.1,83,0.00,OVC,,0.22,WeatherDisplay:10.37,2013-04-19 21:33:00,
2013-04-19 17:38:00,40.5,35.7,29.65,SE,135,9.5,12.7,83,0.00,OVC,,0.22,WeatherDisplay:10.37,2013-04-19 21:38:00,
2013-04-19 17:43:00,40.5,35.4,29.65,West,270,12.2,13.8,82,0.00,OVC,,0.22,WeatherDisplay:10.37,2013-04-19 21:43:00,
2013-04-19 17:48:00,40.5,35.4,29.65,West,270,11.1,17.1,82,0.00,OVC,,0.22,WeatherDisplay:10.37,2013-04-19 21:48:00,
2013-04-19 17:53:00,40.5,35.4,29.66,West,270,13.2,17.3,82,0.00,OVC,,0.22,WeatherDisplay:10.37,2013-04-19 21:53:00,
2013-04-19 17:58:00,40.6,35.5,29.66,WSW,248,13.1,14.5,82,0.00,OVC,,0.22,WeatherDisplay:10.37,2013-04-19 21:58:00,
2013-04-19 18:03:00,40.6,35.5,29.66,WSW,248,9.7,10.4,82,0.00,BKN,,0.22,WeatherDisplay:10.37,2013-04-19 22:03:00,
2013-04-19 18:08:00,40.6,35.2,29.66,SW,225,13.5,13.5,81,0.00,BKN,,0.22,WeatherDisplay:10.37,2013-04-19 22:08:00,
2013-04-19 18:13:00,40.6,35.5,29.66,SSW,202,8.8,15.5,82,0.00,BKN,,0.22,WeatherDisplay:10.37,2013-04-19 22:13:00,
2013-04-19 18:18:00,40.6,35.2,29.68,West,270,14.4,14.5,81,0.00,BKN,,0.22,WeatherDisplay:10.37,2013-04-19 22:18:00,
2013-04-19 18:23:00,40.6,35.2,29.68,SW,225,12.8,16.1,81,0.00,BKN,,0.22,WeatherDisplay:10.37,2013-04-19 22:23:00,
2013-04-19 18:28:00,40.6,35.2,29.67,WNW,292,11.1,15.0,81,0.00,BKN,,0.22,WeatherDisplay:10.37,2013-04-19 22:28:00,
2013-04-19 18:33:00,40.6,35.2,29.67,SW,225,15.1,17.6,81,0.00,BKN,,0.22,WeatherDisplay:10.37,2013-04-19 22:33:00,
2013-04-19 18:38:00,40.5,34.8,29.67,SW,225,12.1,15.0,80,0.00,BKN,,0.22,WeatherDisplay:10.37,2013-04-19 22:38:00,
2013-04-19 18:43:00,40.5,34.5,29.68,SW,225,9.9,15.0,79,0.00,BKN,,0.22,WeatherDisplay:10.37,2013-04-19 22:43:00,
2013-04-19 18:48:00,40.5,34.5,29.68,WSW,248,12.1,15.0,79,0.00,BKN,,0.22,WeatherDisplay:10.37,2013-04-19 22:48:00,
2013-04-19 18:53:00,40.6,34.3,29.68,SW,225,14.4,17.3,78,0.00,BKN,,0.22,WeatherDisplay:10.37,2013-04-19 22:53:00,
2013-04-19 18:58:00,40.6,34.6,29.68,SSE,158,14.0,20.7,79,0.00,BKN,,0.22,WeatherDisplay:10.37,2013-04-19 22:58:00,
2013-04-19 19:04:00,40.6,34.6,29.68,WSW,248,8.8,9.2,79,0.00,OVC,,0.22,WeatherDisplay:10.37,2013-04-19 23:04:00,
2013-04-19 19:09:00,40.6,34.6,29.68,SW,225,13.2,16.1,79,0.00,OVC,,0.22,WeatherDisplay:10.37,2013-04-19 23:09:00,
2013-04-19 19:14:00,40.6,34.6,29.68,SE,135,11.1,11.9,79,0.00,OVC,,0.22,WeatherDisplay:10.37,2013-04-19 23:14:00,
2013-04-19 19:19:00,40.6,34.6,29.70,NNW,338,9.6,14.5,79,0.00,OVC,,0.22,WeatherDisplay:10.37,2013-04-19 23:19:00,
2013-04-19 19:24:00,40.6,34.3,29.70,SW,225,9.3,9.3,78,0.00,OVC,,0.22,WeatherDisplay:10.37,2013-04-19 23:24:00,
2013-04-19 19:29:00,40.6,34.6,29.70,West,270,8.4,10.4,79,0.00,OVC,,0.22,WeatherDisplay:10.37,2013-04-19 23:29:00,
2013-04-19 19:34:00,40.6,34.6,29.70,WSW,248,12.2,16.6,79,0.00,OVC,,0.22,WeatherDisplay:10.37,2013-04-19 23:34:00,
2013-04-19 19:39:00,40.6,34.6,29.70,WSW,248,9.2,13.8,79,0.00,OVC,,0.22,WeatherDisplay:10.37,2013-04-19 23:39:00,
2013-04-19 19:44:00,40.6,34.6,29.70,WSW,248,13.0,13.0,79,0.00,OVC,,0.22,WeatherDisplay:10.37,2013-04-19 23:44:00,
2013-04-19 19:49:00,40.6,34.3,29.70,WSW,248,12.5,13.8,78,0.00,OVC,,0.22,WeatherDisplay:10.37,2013-04-19 23:49:00,
2013-04-19 19:54:00,40.6,34.3,29.70,West,270,12.5,18.4,78,0.00,OVC,,0.22,WeatherDisplay:10.37,2013-04-19 23:54:00,
2013-04-19 19:59:00,40.6,34.3,29.70,West,270,11.2,11.2,78,0.00,OVC,,0.22,WeatherDisplay:10.37,2013-04-19 23:59:00,
2013-04-19 20:04:00,40.6,34.3,29.71,SSW,202,10.3,11.5,78,0.00,BKN,,0.22,WeatherDisplay:10.37,2013-04-20 00:04:00,
2013-04-19 20:09:00,40.6,34.3,29.71,ENE,68,12.8,14.0,78,0.00,BKN,,0.22,WeatherDisplay:10.37,2013-04-20 00:09:00,
2013-04-19 20:14:00,40.6,34.3,29.71,West,270,13.0,13.0,78,0.00,BKN,,0.22,WeatherDisplay:10.37,2013-04-20 00:14:00,
2013-04-19 20:19:00,40.6,34.3,29.71,West,270,13.0,13.0,78,0.00,BKN,,0.22,WeatherDisplay:10.37,2013-04-20 00:19:00,
2013-04-19 20:24:00,40.6,34.3,29.71,West,270,13.0,13.0,78,0.00,BKN,,0.22,WeatherDisplay:10.37,2013-04-20 00:24:00,
2013-04-19 20:29:00,40.6,34.3,29.71,West,270,13.0,13.0,78,0.00,BKN,,0.22,WeatherDisplay:10.37,2013-04-20 00:29:00,
2013-04-19 20:34:00,40.6,34.3,29.71,West,270,13.0,13.0,78,0.00,BKN,,0.22,WeatherDisplay:10.37,2013-04-20 00:34:00,
2013-04-19 20:39:00,40.6,34.3,29.71,West,270,13.0,13.0,78,0.00,BKN,,0.22,WeatherDisplay:10.37,2013-04-20 00:39:00,
2013-04-19 20:44:00,40.6,34.3,29.71,West,270,13.0,13.0,78,0.00,BKN,,0.22,WeatherDisplay:10.37,2013-04-20 00:44:00,
2013-04-19 20:49:00,40.6,34.0,29.72,West,270,15.3,17.3,77,0.00,BKN,,0.22,WeatherDisplay:10.37,2013-04-20 00:49:00,
2013-04-19 20:54:00,40.6,34.0,29.72,WSW,248,14.4,16.1,77,0.00,BKN,,0.22,WeatherDisplay:10.37,2013-04-20 00:54:00,
2013-04-19 20:59:00,40.6,34.3,29.72,West,270,12.1,12.7,78,0.00,BKN,,0.22,WeatherDisplay:10.37,2013-04-20 00:59:00,
2013-04-19 21:04:00,40.6,34.3,29.72,WSW,248,14.1,14.1,78,0.00,OVC,,0.22,WeatherDisplay:10.37,2013-04-20 01:04:00,
2013-04-19 21:09:00,40.6,34.3,29.72,West,270,9.1,10.4,78,0.00,OVC,,0.22,WeatherDisplay:10.37,2013-04-20 01:09:00,
2013-04-19 21:14:00,40.6,34.0,29.72,SW,225,12.6,16.1,77,0.00,OVC,,0.22,WeatherDisplay:10.37,2013-04-20 01:14:00,
2013-04-19 21:19:00,40.6,34.0,29.73,WSW,248,10.6,10.6,77,0.00,OVC,,0.22,WeatherDisplay:10.37,2013-04-20 01:19:00,
2013-04-19 21:24:00,40.6,34.0,29.73,West,270,9.7,13.8,77,0.00,OVC,,0.22,WeatherDisplay:10.37,2013-04-20 01:24:00,
2013-04-19 21:29:00,40.6,33.6,29.73,West,270,11.9,16.0,76,0.00,OVC,,0.22,WeatherDisplay:10.37,2013-04-20 01:29:00,
2013-04-19 21:34:00,40.6,33.6,29.73,West,270,12.2,13.5,76,0.00,OVC,,0.22,WeatherDisplay:10.37,2013-04-20 01:34:00,
2013-04-19 21:39:00,40.6,33.6,29.73,WSW,248,12.7,13.5,76,0.00,OVC,,0.22,WeatherDisplay:10.37,2013-04-20 01:39:00,
2013-04-19 21:44:00,40.6,33.6,29.73,West,270,9.8,11.5,76,0.00,OVC,,0.22,WeatherDisplay:10.37,2013-04-20 01:44:00,
2013-04-19 21:49:00,40.6,33.6,29.73,WSW,248,12.5,15.0,76,0.00,OVC,,0.22,WeatherDisplay:10.37,2013-04-20 01:49:00,
2013-04-19 21:54:00,40.6,33.6,29.75,West,270,11.8,12.7,76,0.00,OVC,,0.22,WeatherDisplay:10.37,2013-04-20 01:54:00,
2013-04-19 21:59:00,40.6,33.6,29.75,WSW,248,8.2,9.2,76,0.00,OVC,,0.22,WeatherDisplay:10.37,2013-04-20 01:59:00,
2013-04-19 22:04:00,40.5,33.9,29.75,WSW,248,10.4,11.5,77,0.00,OVC,,0.22,WeatherDisplay:10.37,2013-04-20 02:04:00,
2013-04-19 22:09:00,40.5,33.5,29.75,West,270,16.9,20.7,76,0.00,OVC,,0.22,WeatherDisplay:10.37,2013-04-20 02:09:00,
2013-04-19 22:14:00,40.5,33.9,29.75,WSW,248,10.7,11.5,77,0.00,OVC,,0.22,WeatherDisplay:10.37,2013-04-20 02:14:00,
2013-04-19 22:19:00,40.5,33.9,29.75,West,270,13.8,16.1,77,0.00,OVC,,0.22,WeatherDisplay:10.37,2013-04-20 02:19:00,
2013-04-19 22:24:00,40.3,33.7,29.75,West,270,10.5,12.7,77,0.00,OVC,,0.22,WeatherDisplay:10.37,2013-04-20 02:24:00,
2013-04-19 22:29:00,40.3,33.7,29.75,West,270,12.0,13.8,77,0.00,OVC,,0.22,WeatherDisplay:10.37,2013-04-20 02:29:00,
2013-04-19 22:34:00,40.3,33.7,29.75,West,270,8.2,12.4,77,0.00,OVC,,0.22,WeatherDisplay:10.37,2013-04-20 02:34:00,
2013-04-19 22:39:00,40.3,33.7,29.75,West,270,7.8,8.1,77,0.00,OVC,,0.22,WeatherDisplay:10.37,2013-04-20 02:39:00,
2013-04-19 22:44:00,40.3,33.0,29.76,West,270,7.9,8.3,75,0.00,OVC,,0.22,WeatherDisplay:10.37,2013-04-20 02:44:00,
2013-04-19 22:49:00,40.3,33.0,29.76,West,270,11.0,12.7,75,0.00,OVC,,0.22,WeatherDisplay:10.37,2013-04-20 02:49:00,
2013-04-19 22:54:00,40.5,32.5,29.76,WSW,248,11.8,15.0,73,0.00,OVC,,0.22,WeatherDisplay:10.37,2013-04-20 02:54:00,
2013-04-19 22:59:00,40.5,32.5,29.76,West,270,9.3,10.4,73,0.00,OVC,,0.22,WeatherDisplay:10.37,2013-04-20 02:59:00,
2013-04-19 23:04:00,40.5,32.9,29.76,West,270,12.0,16.1,74,0.00,OVC,,0.22,WeatherDisplay:10.37,2013-04-20 03:04:00,
2013-04-19 23:09:00,40.3,32.7,29.76,SSW,202,11.1,11.5,74,0.00,OVC,,0.22,WeatherDisplay:10.37,2013-04-20 03:09:00,
2013-04-19 23:14:00,40.3,33.0,29.76,SW,225,11.5,13.8,75,0.00,OVC,,0.22,WeatherDisplay:10.37,2013-04-20 03:14:00,
2013-04-19 23:19:00,40.3,33.0,29.76,SW,225,15.9,18.4,75,0.00,OVC,,0.22,WeatherDisplay:10.37,2013-04-20 03:19:00,
2013-04-19 23:24:00,40.3,33.0,29.76,West,270,15.5,18.4,75,0.00,OVC,,0.22,WeatherDisplay:10.37,2013-04-20 03:24:00,
2013-04-19 23:29:00,40.3,33.0,29.76,West,270,11.4,16.1,75,0.00,OVC,,0.22,WeatherDisplay:10.37,2013-04-20 03:29:00,
2013-04-19 23:34:00,40.3,33.0,29.76,WSW,248,10.9,10.9,75,0.00,OVC,,0.22,WeatherDisplay:10.37,2013-04-20 03:34:00,
2013-04-19 23:39:00,40.3,33.0,29.76,West,270,12.9,15.0,75,0.00,OVC,,0.22,WeatherDisplay:10.37,2013-04-20 03:39:00,
2013-04-19 23:44:00,40.1,32.5,29.77,West,270,9.4,12.7,74,0.00,OVC,,0.22,WeatherDisplay:10.37,2013-04-20 03:44:00,
2013-04-19 23:49:00,40.1,32.5,29.77,SW,225,12.2,12.7,74,0.00,OVC,,0.22,WeatherDisplay:10.37,2013-04-20 03:49:00,
2013-04-19 23:54:00,40.3,32.3,29.77,SSE,158,16.2,23.0,73,0.00,OVC,,0.22,WeatherDisplay:10.37,2013-04-20 03:54:00,
2013-04-19 23:59:00,40.3,32.3,29.77,WSW,248,11.9,16.1,73,0.00,OVC,,0.22,WeatherDisplay:10.37,2013-04-20 03:59:00,